createdAt,value
2023-06-21T00:00:09.062Z,1915.00
2023-06-21T00:01:09.160Z,1907.00
2023-06-21T00:02:09.208Z,1924.00
2023-06-21T00:03:09.354Z,1939.00
2023-06-21T00:04:09.367Z,1920.00
2023-06-21T00:05:09.374Z,1930.00
2023-06-21T00:06:09.431Z,1957.00
2023-06-21T00:07:09.500Z,1945.00
2023-06-21T00:08:09.564Z,1953.00
2023-06-21T00:09:09.656Z,1941.00
2023-06-21T00:10:09.693Z,1933.00
2023-06-21T00:11:09.745Z,1949.00
2023-06-21T00:12:09.813Z,1930.00
2023-06-21T00:13:09.866Z,1944.00
2023-06-21T00:14:09.929Z,1937.00
2023-06-21T00:15:09.976Z,1922.00
2023-06-21T00:16:10.043Z,1923.00
2023-06-21T00:17:10.113Z,1933.00
2023-06-21T00:18:10.232Z,1942.00
2023-06-21T00:19:10.241Z,1952.00
2023-06-21T00:20:10.362Z,1935.00
2023-06-21T00:21:10.384Z,1957.00
2023-06-21T00:22:10.469Z,1944.00
2023-06-21T00:23:10.493Z,1942.00
2023-06-21T00:24:10.629Z,1963.00
2023-06-21T00:25:10.632Z,1976.00
2023-06-21T00:26:10.689Z,1998.00
2023-06-21T00:27:10.736Z,1976.00
2023-06-21T00:28:10.862Z,2009.00
2023-06-21T00:29:10.846Z,1979.00
2023-06-21T00:30:10.907Z,1989.00
2023-06-21T00:31:11.022Z,2002.00
2023-06-21T00:32:11.055Z,1997.00
2023-06-21T00:33:11.120Z,1979.00
2023-06-21T00:34:11.132Z,1980.00
2023-06-21T00:35:11.169Z,2002.00
2023-06-21T00:36:11.230Z,2002.00
2023-06-21T00:37:11.288Z,2010.00
2023-06-21T00:38:11.310Z,1946.00
2023-06-21T00:39:11.346Z,1997.00
2023-06-21T00:40:11.546Z,2018.00
2023-06-21T00:41:11.474Z,2041.00
2023-06-21T00:42:11.533Z,2057.00
2023-06-21T00:43:11.570Z,2057.00
2023-06-21T00:44:11.637Z,2054.00
2023-06-21T00:45:11.694Z,2020.00
2023-06-21T00:46:11.758Z,2060.00
2023-06-21T00:47:11.787Z,2041.00
2023-06-21T00:48:11.835Z,2041.00
2023-06-21T00:49:11.880Z,2026.00
2023-06-21T00:50:11.937Z,2022.00
2023-06-21T00:51:11.963Z,2056.00
2023-06-21T00:52:12.018Z,2061.00
2023-06-21T00:53:12.090Z,2056.00
2023-06-21T00:54:12.132Z,2049.00
2023-06-21T00:55:12.176Z,2078.00
2023-06-21T00:56:12.221Z,2067.00
2023-06-21T00:57:12.284Z,2056.00
2023-06-21T00:58:12.363Z,2053.00
2023-06-21T00:59:12.366Z,2045.00
2023-06-21T01:00:12.430Z,2052.00
2023-06-21T01:01:12.459Z,2078.00
2023-06-21T01:02:12.618Z,2102.00
2023-06-21T01:03:12.649Z,2122.00
2023-06-21T01:04:12.667Z,2122.00
2023-06-21T01:05:12.732Z,2092.00
2023-06-21T01:06:12.776Z,2098.00
2023-06-21T01:07:12.801Z,2124.00
2023-06-21T01:08:12.856Z,2122.00
2023-06-21T01:09:12.882Z,2119.00
2023-06-21T01:10:12.911Z,2136.00
2023-06-21T01:11:12.951Z,2120.00
2023-06-21T01:12:13.017Z,2130.00
2023-06-21T01:13:13.002Z,2102.00
2023-06-21T01:14:13.097Z,2107.00
2023-06-21T01:15:13.091Z,2090.00
2023-06-21T01:16:13.151Z,2093.00
2023-06-21T01:17:13.172Z,2086.00
2023-06-21T01:18:13.224Z,2106.00
2023-06-21T01:19:13.275Z,2072.00
2023-06-21T01:20:13.267Z,2027.00
2023-06-21T01:21:13.315Z,2045.00
2023-06-21T01:22:13.365Z,2049.00
2023-06-21T01:23:13.385Z,2010.00
2023-06-21T01:24:13.436Z,2026.00
2023-06-21T01:25:13.483Z,2020.00
2023-06-21T01:26:13.503Z,2006.00
2023-06-21T01:27:13.561Z,2030.00
2023-06-21T01:28:13.593Z,2016.00
2023-06-21T01:29:13.607Z,1980.00
2023-06-21T01:30:13.615Z,1959.00
2023-06-21T01:31:13.687Z,1957.00
2023-06-21T01:32:13.652Z,1955.00
2023-06-21T01:33:13.690Z,1945.00
2023-06-21T01:34:13.767Z,1935.00
2023-06-21T01:35:13.788Z,1976.00
2023-06-21T01:36:13.780Z,2002.00
2023-06-21T01:37:13.813Z,1984.00
2023-06-21T01:38:13.843Z,1984.00
2023-06-21T01:39:13.850Z,1923.00
2023-06-21T01:40:13.883Z,1920.00
2023-06-21T01:41:13.898Z,1929.00
2023-06-21T01:42:13.939Z,1905.00
2023-06-21T01:43:13.957Z,1902.00
2023-06-21T01:44:13.994Z,1861.00
2023-06-21T01:45:13.993Z,1861.00
2023-06-21T01:46:14.108Z,1860.00
2023-06-21T01:47:14.028Z,1882.00
2023-06-21T01:48:14.071Z,1913.00
2023-06-21T01:49:14.116Z,1920.00
2023-06-21T01:50:14.105Z,1906.00
2023-06-21T01:51:14.112Z,1933.00
2023-06-21T01:52:14.183Z,1936.00
2023-06-21T01:53:14.153Z,1936.00
2023-06-21T01:54:14.177Z,1923.00
2023-06-21T01:55:14.173Z,1903.00
2023-06-21T01:56:14.151Z,1881.00
2023-06-21T01:57:14.171Z,1834.00
2023-06-21T01:58:14.163Z,1880.00
2023-06-21T01:59:14.227Z,1874.00
2023-06-21T02:00:14.178Z,1901.00
2023-06-21T02:01:14.192Z,1868.00
2023-06-21T02:02:14.196Z,1883.00
2023-06-21T02:03:14.205Z,1914.00
2023-06-21T02:04:14.236Z,1904.00
2023-06-21T02:05:14.274Z,1912.00
2023-06-21T02:06:14.244Z,1869.00
2023-06-21T02:07:14.256Z,1874.00
2023-06-21T02:08:14.224Z,1858.00
2023-06-21T02:09:14.226Z,1880.00
2023-06-21T02:10:14.232Z,1888.00
2023-06-21T02:11:14.228Z,1870.00
2023-06-21T02:12:14.317Z,1885.00
2023-06-21T02:13:14.224Z,1836.00
2023-06-21T02:14:14.244Z,1779.00
2023-06-21T02:15:14.240Z,1746.00
2023-06-21T02:16:14.282Z,1767.00
2023-06-21T02:17:14.249Z,1755.00
2023-06-21T02:18:14.247Z,1753.00
2023-06-21T02:19:14.214Z,1710.00
2023-06-21T02:20:14.298Z,1680.00
2023-06-21T02:21:14.211Z,1654.00
2023-06-21T02:22:14.219Z,1642.00
2023-06-21T02:23:14.214Z,1647.00
2023-06-21T02:24:14.191Z,1640.00
2023-06-21T02:25:14.188Z,1624.00
2023-06-21T02:26:14.196Z,1648.00
2023-06-21T02:27:14.188Z,1665.00
2023-06-21T02:28:14.220Z,1673.00
2023-06-21T02:29:14.177Z,1666.00
2023-06-21T02:30:14.169Z,1625.00
2023-06-21T02:31:14.197Z,1629.00
2023-06-21T02:32:14.187Z,1634.00
2023-06-21T02:33:14.201Z,1615.00
2023-06-21T02:34:14.235Z,1599.00
2023-06-21T02:35:14.189Z,1594.00
2023-06-21T02:36:14.145Z,1614.00
2023-06-21T02:37:14.180Z,1592.00
2023-06-21T02:38:14.239Z,1581.00
2023-06-21T02:39:14.153Z,1566.00
2023-06-21T02:40:14.153Z,1585.00
2023-06-21T02:41:14.173Z,1573.00
2023-06-21T02:42:14.167Z,1578.00
2023-06-21T02:43:14.151Z,1589.00
2023-06-21T02:44:14.141Z,1589.00
2023-06-21T02:45:14.157Z,1591.00
2023-06-21T02:46:14.155Z,1578.00
2023-06-21T02:47:14.158Z,1578.00
2023-06-21T02:48:14.177Z,1597.00
2023-06-21T02:49:14.209Z,1608.00
2023-06-21T02:50:14.148Z,1600.00
2023-06-21T02:51:14.140Z,1588.00
2023-06-21T02:52:14.212Z,1576.00
2023-06-21T02:53:14.171Z,1579.00
2023-06-21T02:54:14.155Z,1590.00
2023-06-21T02:55:14.170Z,1600.00
2023-06-21T02:56:14.194Z,1587.00
2023-06-21T02:57:14.215Z,1581.00
2023-06-21T02:58:14.181Z,1587.00
2023-06-21T02:59:14.172Z,1597.00
2023-06-21T03:00:14.218Z,1603.00
2023-06-21T03:01:14.287Z,1604.00
2023-06-21T03:02:14.218Z,1619.00
2023-06-21T03:03:14.228Z,1629.00
2023-06-21T03:04:14.192Z,1619.00
2023-06-21T03:05:14.211Z,1624.00
2023-06-21T03:06:14.231Z,1631.00
2023-06-21T03:07:14.226Z,1642.00
2023-06-21T03:08:14.245Z,1628.00
2023-06-21T03:09:14.187Z,1631.00
2023-06-21T03:10:14.231Z,1628.00
2023-06-21T03:11:14.222Z,1642.00
2023-06-21T03:12:14.243Z,1618.00
2023-06-21T03:13:14.212Z,1621.00
2023-06-21T03:14:14.196Z,1634.00
2023-06-21T03:15:14.251Z,1635.00
2023-06-21T03:16:14.236Z,1633.00
2023-06-21T03:17:14.260Z,1613.00
2023-06-21T03:18:14.204Z,1606.00
2023-06-21T03:19:14.245Z,1604.00
2023-06-21T03:20:14.223Z,1603.00
2023-06-21T03:21:14.237Z,1608.00
2023-06-21T03:22:16.626Z,1597.00
2023-06-21T03:23:14.396Z,1615.00
2023-06-21T03:24:14.447Z,1614.00
2023-06-21T03:25:14.376Z,1619.00
2023-06-21T03:26:14.395Z,1610.00
2023-06-21T03:27:14.385Z,1589.00
2023-06-21T03:28:14.372Z,1599.00
2023-06-21T03:29:14.383Z,1617.00
2023-06-21T03:30:14.450Z,1627.00
2023-06-21T03:31:14.415Z,1620.00
2023-06-21T03:32:14.379Z,1629.00
2023-06-21T03:33:14.389Z,1622.00
2023-06-21T03:34:14.419Z,1621.00
2023-06-21T03:35:14.369Z,1617.00
2023-06-21T03:36:14.373Z,1625.00
2023-06-21T03:37:14.423Z,1633.00
2023-06-21T03:38:14.398Z,1654.00
2023-06-21T03:39:14.402Z,1654.00
2023-06-21T03:40:14.412Z,1650.00
2023-06-21T03:41:14.425Z,1661.00
2023-06-21T03:42:14.461Z,1660.00
2023-06-21T03:43:14.480Z,1666.00
2023-06-21T03:44:14.449Z,1676.00
2023-06-21T03:45:14.513Z,1664.00
2023-06-21T03:46:14.520Z,1664.00
2023-06-21T03:47:14.506Z,1687.00
2023-06-21T03:48:14.477Z,1696.00
2023-06-21T03:49:14.557Z,1683.00
2023-06-21T03:50:14.549Z,1690.00
2023-06-21T03:51:14.500Z,1685.00
2023-06-21T03:52:14.540Z,1663.00
2023-06-21T03:53:14.578Z,1649.00
2023-06-21T03:54:14.595Z,1644.00
2023-06-21T03:55:14.582Z,1646.00
2023-06-21T03:56:14.594Z,1622.00
2023-06-21T03:57:14.612Z,1634.00
2023-06-21T03:58:14.659Z,1643.00
2023-06-21T03:59:14.628Z,1647.00
2023-06-21T04:00:14.636Z,1635.00
2023-06-21T04:01:14.659Z,1628.00
2023-06-21T04:02:14.725Z,1624.00
2023-06-21T04:03:14.715Z,1626.00
2023-06-21T04:04:14.732Z,1636.00
2023-06-21T04:05:14.720Z,1621.00
2023-06-21T04:06:14.690Z,1613.00
2023-06-21T04:07:14.761Z,1618.00
2023-06-21T04:08:14.732Z,1603.00
2023-06-21T04:09:14.704Z,1617.00
2023-06-21T04:10:14.781Z,1598.00
2023-06-21T04:11:14.758Z,1615.00
2023-06-21T04:12:14.830Z,1612.00
2023-06-21T04:13:14.821Z,1608.00
2023-06-21T04:14:14.808Z,1607.00
2023-06-21T04:15:14.775Z,1612.00
2023-06-21T04:16:14.794Z,1606.00
2023-06-21T04:17:14.825Z,1605.00
2023-06-21T04:18:14.824Z,1616.00
2023-06-21T04:19:14.859Z,1624.00
2023-06-21T04:20:14.869Z,1630.00
2023-06-21T04:21:14.898Z,1622.00
2023-06-21T04:22:14.899Z,1645.00
2023-06-21T04:23:14.884Z,1637.00
2023-06-21T04:24:14.930Z,1631.00
2023-06-21T04:25:14.913Z,1634.00
2023-06-21T04:26:14.914Z,1634.00
2023-06-21T04:27:14.963Z,1648.00
2023-06-21T04:28:14.978Z,1644.00
2023-06-21T04:29:14.953Z,1644.00
2023-06-21T04:30:14.985Z,1642.00
2023-06-21T04:31:15.042Z,1650.00
2023-06-21T04:32:14.985Z,1650.00
2023-06-21T04:33:14.986Z,1655.00
2023-06-21T04:34:15.021Z,1661.00
2023-06-21T04:35:15.014Z,1643.00
2023-06-21T04:36:15.035Z,1643.00
2023-06-21T04:37:15.028Z,1636.00
2023-06-21T04:38:15.033Z,1637.00
2023-06-21T04:39:15.056Z,1633.00
2023-06-21T04:40:17.222Z,1632.00
2023-06-21T04:41:15.048Z,1640.00
2023-06-21T04:42:15.075Z,1638.00
2023-06-21T04:43:15.037Z,1622.00
2023-06-21T04:44:15.035Z,1608.00
2023-06-21T04:45:15.016Z,1610.00
2023-06-21T04:46:15.161Z,1623.00
2023-06-21T04:47:15.661Z,1619.00
2023-06-21T04:48:15.024Z,1632.00
2023-06-21T04:49:15.013Z,1649.00
2023-06-21T04:50:20.315Z,1645.00
2023-06-21T04:51:16.005Z,1647.00
2023-06-21T04:52:14.988Z,1650.00
2023-06-21T04:53:14.979Z,1658.00
2023-06-21T04:54:15.018Z,1670.00
2023-06-21T04:55:14.979Z,1692.00
2023-06-21T04:56:14.974Z,1687.00
2023-06-21T04:57:14.969Z,1694.00
2023-06-21T04:58:14.936Z,1693.00
2023-06-21T04:59:14.946Z,1697.00
2023-06-21T05:00:14.960Z,1698.00
2023-06-21T05:01:14.972Z,1696.00
2023-06-21T05:02:14.958Z,1704.00
2023-06-21T05:03:15.062Z,1673.00
2023-06-21T05:04:14.912Z,1682.00
2023-06-21T05:05:14.915Z,1690.00
2023-06-21T05:06:14.905Z,1677.00
2023-06-21T05:07:14.889Z,1681.00
2023-06-21T05:08:14.904Z,1680.00
2023-06-21T05:09:14.882Z,1705.00
2023-06-21T05:10:14.882Z,1743.00
2023-06-21T05:11:14.863Z,1775.00
2023-06-21T05:12:14.876Z,1800.00
2023-06-21T05:13:14.881Z,1835.00
2023-06-21T05:14:14.859Z,1850.00
2023-06-21T05:15:14.883Z,1851.00
2023-06-21T05:16:14.844Z,1880.00
2023-06-21T05:17:14.867Z,1894.00
2023-06-21T05:18:14.839Z,1900.00
2023-06-21T05:19:14.811Z,1903.00
2023-06-21T05:20:15.886Z,1903.00
2023-06-21T05:21:14.807Z,1906.00
2023-06-21T05:22:14.812Z,1914.00
2023-06-21T05:23:14.811Z,1916.00
2023-06-21T05:24:14.806Z,1928.00
2023-06-21T05:25:14.893Z,1922.00
2023-06-21T05:26:14.788Z,1920.00
2023-06-21T05:27:14.791Z,1934.00
2023-06-21T05:28:14.811Z,1945.00
2023-06-21T05:29:14.778Z,1941.00
2023-06-21T05:30:14.766Z,1949.00
2023-06-21T05:31:14.810Z,1933.00
2023-06-21T05:32:14.832Z,1950.00
2023-06-21T05:33:14.817Z,1960.00
2023-06-21T05:34:14.823Z,1951.00
2023-06-21T05:35:14.912Z,1942.00
2023-06-21T05:36:14.911Z,1941.00
2023-06-21T05:37:14.995Z,1938.00
2023-06-21T05:38:15.140Z,1940.00
2023-06-21T05:39:15.069Z,1913.00
2023-06-21T05:40:15.161Z,1911.00
2023-06-21T05:41:15.228Z,1908.00
2023-06-21T05:42:15.253Z,1904.00
2023-06-21T05:43:15.328Z,1889.00
2023-06-21T05:44:15.390Z,1898.00
2023-06-21T05:45:15.417Z,1895.00
2023-06-21T05:46:15.504Z,1910.00
2023-06-21T05:47:15.869Z,1910.00
2023-06-21T05:48:15.930Z,1889.00
2023-06-21T05:49:15.671Z,1901.00
2023-06-21T05:50:15.763Z,1904.00
2023-06-21T05:51:15.835Z,1901.00
2023-06-21T05:52:15.844Z,1900.00
2023-06-21T05:53:15.929Z,1902.00
2023-06-21T05:54:15.995Z,1894.00
2023-06-21T05:55:16.045Z,1873.00
2023-06-21T05:56:16.112Z,1878.00
2023-06-21T05:57:16.175Z,1886.00
2023-06-21T05:58:16.207Z,1885.00
2023-06-21T05:59:18.591Z,1890.00
2023-06-21T06:00:16.248Z,1890.00
2023-06-21T06:01:24.840Z,1890.00
2023-06-21T06:02:17.284Z,1891.00
2023-06-21T06:03:16.410Z,1891.00
2023-06-21T06:04:16.297Z,1894.00
2023-06-21T06:05:16.289Z,1882.00
2023-06-21T06:06:16.204Z,1880.00
2023-06-21T06:07:16.213Z,1855.00
2023-06-21T06:08:16.219Z,1870.00
2023-06-21T06:09:16.172Z,1860.00
2023-06-21T06:10:16.191Z,1847.00
2023-06-21T06:11:16.164Z,1854.00
2023-06-21T06:12:16.173Z,1838.00
2023-06-21T06:13:16.266Z,1842.00
2023-06-21T06:14:16.265Z,1833.00
2023-06-21T06:15:16.327Z,1854.00
2023-06-21T06:16:16.367Z,1842.00
2023-06-21T06:17:16.371Z,1825.00
2023-06-21T06:18:16.424Z,1822.00
2023-06-21T06:19:16.450Z,1826.00
2023-06-21T06:20:16.507Z,1828.00
2023-06-21T06:21:16.522Z,1799.00
2023-06-21T06:22:16.617Z,1807.00
2023-06-21T06:23:16.587Z,1803.00
2023-06-21T06:24:16.632Z,1803.00
2023-06-21T06:25:16.674Z,1808.00
2023-06-21T06:26:16.692Z,1811.00
2023-06-21T06:27:16.711Z,1793.00
2023-06-21T06:28:16.769Z,1766.00
2023-06-21T06:29:16.797Z,1770.00
2023-06-21T06:30:16.819Z,1754.00
2023-06-21T06:31:16.831Z,1745.00
2023-06-21T06:32:16.859Z,1746.00
2023-06-21T06:33:16.963Z,1761.00
2023-06-21T06:34:16.898Z,1739.00
2023-06-21T06:35:16.958Z,1736.00
2023-06-21T06:36:16.927Z,1737.00
2023-06-21T06:37:20.595Z,1731.00
2023-06-21T06:38:16.987Z,1732.00
2023-06-21T06:39:16.979Z,1724.00
2023-06-21T06:40:16.996Z,1698.00
2023-06-21T06:41:16.905Z,1736.00
2023-06-21T06:42:16.974Z,1741.00
2023-06-21T06:43:16.934Z,1733.00
2023-06-21T06:44:16.908Z,1727.00
2023-06-21T06:45:16.923Z,1713.00
2023-06-21T06:46:16.886Z,1708.00
2023-06-21T06:47:16.858Z,1712.00
2023-06-21T06:48:16.885Z,1698.00
2023-06-21T06:49:16.875Z,1716.00
2023-06-21T06:50:17.042Z,1695.00
2023-06-21T06:51:16.845Z,1719.00
2023-06-21T06:52:16.822Z,1715.00
2023-06-21T06:53:16.866Z,1694.00
2023-06-21T06:54:16.849Z,1676.00
2023-06-21T06:55:16.806Z,1681.00
2023-06-21T06:56:16.813Z,1666.00
2023-06-21T06:57:26.500Z,1686.00
2023-06-21T06:58:18.012Z,1686.00
2023-06-21T06:59:16.821Z,1662.00
2023-06-21T07:00:16.799Z,1678.00
2023-06-21T07:01:16.800Z,1687.00
2023-06-21T07:02:16.787Z,1678.00
2023-06-21T07:03:16.913Z,1662.00
2023-06-21T07:04:16.947Z,1643.00
2023-06-21T07:05:16.876Z,1659.00
2023-06-21T07:06:16.826Z,1618.00
2023-06-21T07:07:16.763Z,1613.00
2023-06-21T07:08:16.976Z,1617.00
2023-06-21T07:09:16.730Z,1604.00
2023-06-21T07:10:19.479Z,1608.00
2023-06-21T07:11:16.721Z,1628.00
2023-06-21T07:12:16.730Z,1582.00
2023-06-21T07:13:16.980Z,1584.00
2023-06-21T07:14:16.687Z,1571.00
2023-06-21T07:15:16.684Z,1567.00
2023-06-21T07:16:16.695Z,1575.00
2023-06-21T07:17:16.684Z,1554.00
2023-06-21T07:18:16.694Z,1553.00
2023-06-21T07:19:16.694Z,1532.00
2023-06-21T07:20:16.673Z,1526.00
2023-06-21T07:21:18.685Z,1527.00
2023-06-21T07:22:16.617Z,1528.00
2023-06-21T07:23:16.998Z,1523.00
2023-06-21T07:24:16.644Z,1512.00
2023-06-21T07:25:16.734Z,1503.00
2023-06-21T07:26:16.616Z,1508.00
2023-06-21T07:27:16.719Z,1495.00
2023-06-21T07:28:17.061Z,1474.00
2023-06-21T07:29:16.606Z,1467.00
2023-06-21T07:30:16.631Z,1453.00
2023-06-21T07:31:16.697Z,1445.00
2023-06-21T07:32:16.593Z,1373.00
2023-06-21T07:33:16.668Z,1366.00
2023-06-21T07:34:16.606Z,1351.00
2023-06-21T07:35:16.779Z,1350.00
2023-06-21T07:36:16.587Z,1384.00
2023-06-21T07:37:16.824Z,1410.00
2023-06-21T07:38:16.635Z,1438.00
2023-06-21T07:39:16.559Z,1450.00
2023-06-21T07:40:17.494Z,1462.00
2023-06-21T07:41:16.531Z,1460.00
2023-06-21T07:42:16.628Z,1459.00
2023-06-21T07:43:17.056Z,1468.00
2023-06-21T07:44:16.584Z,1494.00
2023-06-21T07:45:16.523Z,1512.00
2023-06-21T07:46:16.614Z,1513.00
2023-06-21T07:47:16.620Z,1511.00
2023-06-21T07:48:20.301Z,1525.00
2023-06-21T07:49:16.468Z,1526.00
2023-06-21T07:50:22.462Z,1529.00
2023-06-21T07:51:17.480Z,1527.00
2023-06-21T07:52:16.445Z,1529.00
2023-06-21T07:53:17.044Z,1531.00
2023-06-21T07:54:16.473Z,1538.00
2023-06-21T07:55:16.498Z,1554.00
2023-06-21T07:56:16.503Z,1560.00
2023-06-21T07:57:16.420Z,1538.00
2023-06-21T07:58:16.443Z,1536.00
2023-06-21T07:59:16.454Z,1536.00
2023-06-21T08:00:16.467Z,1548.00
2023-06-21T08:01:16.514Z,1536.00
2023-06-21T08:02:16.632Z,1527.00
2023-06-21T08:03:17.036Z,1511.00
2023-06-21T08:04:16.632Z,1516.00
2023-06-21T08:05:16.833Z,1518.00
2023-06-21T08:06:16.728Z,1532.00
2023-06-21T08:07:16.821Z,1534.00
2023-06-21T08:08:16.997Z,1526.00
2023-06-21T08:09:16.941Z,1502.00
2023-06-21T08:10:17.007Z,1503.00
2023-06-21T08:11:17.132Z,1518.00
2023-06-21T08:12:17.078Z,1540.00
2023-06-21T08:13:17.141Z,1557.00
2023-06-21T08:14:17.272Z,1511.00
2023-06-21T08:15:17.442Z,1517.00
2023-06-21T08:16:17.347Z,1495.00
2023-06-21T08:17:17.367Z,1509.00
2023-06-21T08:18:19.027Z,1484.00
2023-06-21T08:19:17.579Z,1445.00
2023-06-21T08:20:18.571Z,1439.00
2023-06-21T08:21:17.635Z,1396.00
2023-06-21T08:22:17.614Z,1308.00
2023-06-21T08:23:18.050Z,1318.00
2023-06-21T08:24:17.710Z,1331.00
2023-06-21T08:25:17.738Z,1325.00
2023-06-21T08:26:17.814Z,1305.00
2023-06-21T08:27:17.846Z,1270.00
2023-06-21T08:28:18.028Z,1226.00
2023-06-21T08:29:17.988Z,1169.00
2023-06-21T08:30:17.995Z,1146.00
2023-06-21T08:31:18.208Z,1114.00
2023-06-21T08:32:18.072Z,1085.00
2023-06-21T08:33:18.142Z,1078.00
2023-06-21T08:34:18.139Z,1046.00
2023-06-21T08:35:18.153Z,1019.00
2023-06-21T08:36:18.168Z,1022.00
2023-06-21T08:37:18.190Z,1008.00
2023-06-21T08:38:26.568Z,991.00
2023-06-21T08:39:19.204Z,992.00
2023-06-21T08:40:18.216Z,998.00
2023-06-21T08:41:18.240Z,1026.00
2023-06-21T08:42:18.318Z,1082.00
2023-06-21T08:43:18.409Z,1160.00
2023-06-21T08:44:18.362Z,1167.00
2023-06-21T08:45:18.369Z,1164.00
2023-06-21T08:46:18.429Z,1155.00
2023-06-21T08:47:18.374Z,1120.00
2023-06-21T08:48:18.427Z,1156.00
2023-06-21T08:49:18.403Z,1193.00
2023-06-21T08:50:18.478Z,1205.00
2023-06-21T08:51:18.564Z,1221.00
2023-06-21T08:52:18.561Z,1252.00
2023-06-21T08:53:18.570Z,1241.00
2023-06-21T08:54:18.664Z,1247.00
2023-06-21T08:55:18.675Z,1252.00
2023-06-21T08:56:18.724Z,1261.00
2023-06-21T08:57:18.807Z,1270.00
2023-06-21T08:58:18.919Z,1248.00
2023-06-21T08:59:18.891Z,1229.00
2023-06-21T09:00:18.968Z,1243.00
2023-06-21T09:01:19.135Z,1231.00
2023-06-21T09:02:19.149Z,1227.00
2023-06-21T09:03:19.239Z,1239.00
2023-06-21T09:04:19.359Z,1231.00
2023-06-21T09:05:19.165Z,1226.00
2023-06-21T09:06:19.273Z,1249.00
2023-06-21T09:07:19.295Z,1258.00
2023-06-21T09:08:19.338Z,1196.00
2023-06-21T09:09:19.397Z,1205.00
2023-06-21T09:10:19.570Z,1221.00
2023-06-21T09:11:19.514Z,1207.00
2023-06-21T09:12:19.614Z,1248.00
2023-06-21T09:13:20.036Z,1190.00
2023-06-21T09:14:19.743Z,1218.00
2023-06-21T09:15:20.523Z,1202.00
2023-06-21T09:16:19.850Z,1225.00
2023-06-21T09:17:19.897Z,1241.00
2023-06-21T09:18:20.017Z,1258.00
2023-06-21T09:19:20.033Z,1308.00
2023-06-21T09:20:20.136Z,1313.00
2023-06-21T09:21:20.146Z,1292.00
2023-06-21T09:22:20.192Z,1322.00
2023-06-21T09:23:20.260Z,1296.00
2023-06-21T09:24:20.294Z,1297.00
2023-06-21T09:25:20.396Z,1260.00
2023-06-21T09:26:20.443Z,1203.00
2023-06-21T09:27:20.480Z,1190.00
2023-06-21T09:28:20.561Z,1091.00
2023-06-21T09:29:20.650Z,1067.00
2023-06-21T09:30:36.750Z,1026.00
2023-06-21T09:31:21.673Z,1006.00
2023-06-21T09:32:20.719Z,998.00
2023-06-21T09:33:20.711Z,958.00
2023-06-21T09:34:20.677Z,944.00
2023-06-21T09:35:20.650Z,932.00
2023-06-21T09:36:20.693Z,878.00
2023-06-21T09:37:20.657Z,885.00
2023-06-21T09:38:21.061Z,860.00
2023-06-21T09:39:20.659Z,825.00
2023-06-21T09:40:20.672Z,798.00
2023-06-21T09:41:21.528Z,787.00
2023-06-21T09:42:20.712Z,775.00
2023-06-21T09:43:21.052Z,730.00
2023-06-21T09:44:21.535Z,725.00
2023-06-21T09:45:20.818Z,679.00
2023-06-21T09:46:20.774Z,666.00
2023-06-21T09:47:20.850Z,665.00
2023-06-21T09:48:21.229Z,691.00
2023-06-21T09:49:20.887Z,658.00
2023-06-21T09:50:21.053Z,678.00
2023-06-21T09:51:20.870Z,662.00
2023-06-21T09:52:21.524Z,648.00
2023-06-21T09:53:21.034Z,645.00
2023-06-21T09:54:20.999Z,640.00
2023-06-21T09:55:20.990Z,638.00
2023-06-21T09:56:21.049Z,640.00
2023-06-21T09:57:21.052Z,642.00
2023-06-21T09:58:21.573Z,649.00
2023-06-21T09:59:21.128Z,662.00
2023-06-21T10:00:21.156Z,671.00
2023-06-21T10:01:21.281Z,678.00
2023-06-21T10:02:21.200Z,698.00
2023-06-21T10:03:21.246Z,705.00
2023-06-21T10:04:21.174Z,718.00
2023-06-21T10:05:21.346Z,717.00
2023-06-21T10:06:21.213Z,674.00
2023-06-21T10:07:21.220Z,684.00
2023-06-21T10:08:21.249Z,700.00
2023-06-21T10:09:21.937Z,706.00
2023-06-21T10:10:21.210Z,695.00
2023-06-21T10:11:21.214Z,680.00
2023-06-21T10:12:21.228Z,649.00
2023-06-21T10:13:21.260Z,653.00
2023-06-21T10:14:21.246Z,653.00
2023-06-21T10:15:21.241Z,646.00
2023-06-21T10:16:21.282Z,634.00
2023-06-21T10:17:21.276Z,631.00
2023-06-21T10:18:21.365Z,639.00
2023-06-21T10:19:21.273Z,651.00
2023-06-21T10:20:21.335Z,645.00
2023-06-21T10:21:21.325Z,636.00
2023-06-21T10:22:21.309Z,646.00
2023-06-21T10:23:21.288Z,639.00
2023-06-21T10:24:21.616Z,655.00
2023-06-21T10:25:21.320Z,638.00
2023-06-21T10:26:21.330Z,632.00
2023-06-21T10:27:21.282Z,639.00
2023-06-21T10:28:21.578Z,637.00
2023-06-21T10:29:21.275Z,642.00
2023-06-21T10:30:21.344Z,634.00
2023-06-21T10:31:22.100Z,631.00
2023-06-21T10:32:21.458Z,628.00
2023-06-21T10:33:21.489Z,619.00
2023-06-21T10:34:21.330Z,623.00
2023-06-21T10:35:21.281Z,614.00
2023-06-21T10:36:21.288Z,609.00
2023-06-21T10:37:21.267Z,618.00
2023-06-21T10:38:21.288Z,618.00
2023-06-21T10:39:21.271Z,604.00
2023-06-21T10:40:21.348Z,600.00
2023-06-21T10:41:21.260Z,599.00
2023-06-21T10:42:21.285Z,592.00
2023-06-21T10:43:21.251Z,589.00
2023-06-21T10:44:24.404Z,578.00
2023-06-21T10:45:21.239Z,575.00
2023-06-21T10:46:21.293Z,581.00
2023-06-21T10:47:21.227Z,587.00
2023-06-21T10:48:21.269Z,588.00
2023-06-21T10:49:21.606Z,582.00
2023-06-21T10:50:21.191Z,592.00
2023-06-21T10:51:21.240Z,589.00
2023-06-21T10:52:21.193Z,580.00
2023-06-21T10:53:22.744Z,587.00
2023-06-21T10:54:21.213Z,583.00
2023-06-21T10:55:21.306Z,584.00
2023-06-21T10:56:21.143Z,567.00
2023-06-21T10:57:21.177Z,553.00
2023-06-21T10:58:21.155Z,552.00
2023-06-21T10:59:21.142Z,566.00
2023-06-21T11:00:21.209Z,570.00
2023-06-21T11:01:21.223Z,566.00
2023-06-21T11:02:21.131Z,555.00
2023-06-21T11:03:21.170Z,543.00
2023-06-21T11:04:21.161Z,549.00
2023-06-21T11:05:21.148Z,508.00
2023-06-21T11:06:21.104Z,512.00
2023-06-21T11:07:21.081Z,528.00
2023-06-21T11:08:21.095Z,538.00
2023-06-21T11:09:21.593Z,555.00
2023-06-21T11:10:21.103Z,544.00
2023-06-21T11:11:21.070Z,539.00
2023-06-21T11:12:21.064Z,543.00
2023-06-21T11:13:21.052Z,549.00
2023-06-21T11:14:21.079Z,545.00
2023-06-21T11:15:21.086Z,553.00
2023-06-21T11:16:21.044Z,555.00
2023-06-21T11:17:21.020Z,552.00
2023-06-21T11:18:21.086Z,543.00
2023-06-21T11:19:21.070Z,535.00
2023-06-21T11:20:21.017Z,550.00
2023-06-21T11:21:20.995Z,547.00
2023-06-21T11:22:21.033Z,554.00
2023-06-21T11:23:21.048Z,526.00
2023-06-21T11:24:21.104Z,536.00
2023-06-21T11:25:21.151Z,538.00
2023-06-21T11:26:21.194Z,545.00
2023-06-21T11:27:21.204Z,535.00
2023-06-21T11:28:21.212Z,537.00
2023-06-21T11:29:21.229Z,535.00
2023-06-21T11:30:21.229Z,536.00
2023-06-21T11:31:21.241Z,534.00
2023-06-21T11:32:21.278Z,530.00
2023-06-21T11:33:21.244Z,527.00
2023-06-21T11:34:21.253Z,524.00
2023-06-21T11:35:21.216Z,522.00
2023-06-21T11:36:21.256Z,531.00
2023-06-21T11:37:21.255Z,515.00
2023-06-21T11:38:21.277Z,503.00
2023-06-21T11:39:21.291Z,504.00
2023-06-21T11:40:21.304Z,500.00
2023-06-21T11:41:21.380Z,511.00
2023-06-21T11:42:21.380Z,518.00
2023-06-21T11:43:21.416Z,522.00
2023-06-21T11:44:21.499Z,504.00
2023-06-21T11:45:21.474Z,505.00
2023-06-21T11:46:21.561Z,505.00
2023-06-21T11:47:21.629Z,514.00
2023-06-21T11:48:21.523Z,509.00
2023-06-21T11:49:21.539Z,508.00
2023-06-21T11:50:21.554Z,512.00
2023-06-21T11:51:21.623Z,500.00
2023-06-21T11:52:21.632Z,510.00
2023-06-21T11:53:21.634Z,511.00
2023-06-21T11:54:21.641Z,506.00
2023-06-21T11:55:21.639Z,517.00
2023-06-21T11:56:21.654Z,500.00
2023-06-21T11:57:21.701Z,510.00
2023-06-21T11:58:21.676Z,499.00
2023-06-21T11:59:22.098Z,505.00
2023-06-21T12:00:21.733Z,503.00
2023-06-21T12:01:21.747Z,505.00
2023-06-21T12:02:21.959Z,500.00
2023-06-21T12:03:21.887Z,501.00
2023-06-21T12:04:21.812Z,514.00
2023-06-21T12:05:22.003Z,517.00
2023-06-21T12:06:21.831Z,507.00
2023-06-21T12:07:21.829Z,507.00
2023-06-21T12:08:21.832Z,501.00
2023-06-21T12:09:21.835Z,507.00
2023-06-21T12:10:21.852Z,505.00